createdAt,value
2022-10-15T00:01:26.407Z,6.70
2022-10-15T00:06:24.765Z,8.90
2022-10-15T00:11:26.949Z,4.57
2022-10-15T00:16:27.711Z,3.33
2022-10-15T00:21:26.540Z,6.00
2022-10-15T00:26:28.205Z,4.47
2022-10-15T00:31:28.113Z,4.80
2022-10-15T00:36:28.521Z,4.73
2022-10-15T00:41:30.565Z,7.20
2022-10-15T00:46:32.959Z,5.07
2022-10-15T00:51:35.652Z,4.23
2022-10-15T00:56:37.695Z,4.87
2022-10-15T01:01:36.989Z,7.40
2022-10-15T01:06:35.525Z,4.70
2022-10-15T01:11:41.825Z,4.00
2022-10-15T01:16:50.695Z,5.17
2022-10-15T01:21:53.411Z,7.00
2022-10-15T01:27:24.847Z,11.33
2022-10-15T01:32:28.291Z,6.97
2022-10-15T01:37:33.319Z,7.20
2022-10-15T01:42:35.569Z,6.20
2022-10-15T01:47:39.106Z,7.77
2022-10-15T01:52:41.125Z,7.03
2022-10-15T01:57:41.970Z,7.43
2022-10-15T02:02:42.087Z,4.47
2022-10-15T02:07:48.027Z,7.07
2022-10-15T02:12:58.534Z,7.70
2022-10-15T02:18:05.472Z,9.13
2022-10-15T02:23:07.943Z,9.77
2022-10-15T02:28:07.468Z,8.07
2022-10-15T02:33:07.596Z,8.53
2022-10-15T02:38:09.111Z,8.87
2022-10-15T02:43:11.435Z,12.00
2022-10-15T02:48:10.912Z,10.13
2022-10-15T02:53:10.352Z,8.17
2022-10-15T02:58:08.635Z,10.07
2022-10-15T03:03:06.975Z,8.80
2022-10-15T03:08:06.966Z,10.37
2022-10-15T03:13:05.940Z,9.10
2022-10-15T03:18:09.921Z,12.87
2022-10-15T03:23:09.853Z,5.60
2022-10-15T03:28:08.155Z,7.30
2022-10-15T03:33:10.546Z,8.73
2022-10-15T03:38:10.681Z,8.40
2022-10-15T03:43:09.396Z,7.30
2022-10-15T03:48:08.049Z,6.17
2022-10-15T03:53:07.082Z,7.83
2022-10-15T03:58:07.344Z,7.07
2022-10-15T04:03:10.543Z,10.13
2022-10-15T04:08:08.738Z,12.90
2022-10-15T04:13:12.590Z,9.97
2022-10-15T04:18:14.031Z,17.10
2022-10-15T04:23:12.694Z,7.83
2022-10-15T04:28:16.177Z,13.87
2022-10-15T04:33:17.897Z,4.57
2022-10-15T04:38:16.088Z,4.73
2022-10-15T04:43:32.648Z,7.07
2022-10-15T04:48:38.985Z,6.20
2022-10-15T04:53:43.099Z,10.00
2022-10-15T04:58:43.298Z,7.60
2022-10-15T05:03:44.940Z,6.87
2022-10-15T05:08:44.029Z,13.23
2022-10-15T05:13:50.245Z,9.97
2022-10-15T05:18:51.735Z,9.10
2022-10-15T05:23:50.250Z,11.47
2022-10-15T05:29:11.797Z,11.70
2022-10-15T05:34:10.774Z,13.97
2022-10-15T05:39:16.538Z,11.43
2022-10-15T05:44:18.063Z,16.40
2022-10-15T05:49:16.431Z,16.27
2022-10-15T05:54:37.333Z,13.67
2022-10-15T05:59:36.794Z,9.73
2022-10-15T06:04:35.947Z,15.40
2022-10-15T06:09:34.317Z,11.10
2022-10-15T06:14:32.409Z,13.00
2022-10-15T06:19:31.891Z,23.93
2022-10-15T06:24:29.964Z,10.67
2022-10-15T06:29:28.093Z,12.00
2022-10-15T06:34:27.615Z,20.53
2022-10-15T06:39:27.082Z,17.33
2022-10-15T06:44:25.255Z,6.87
2022-10-15T06:49:23.386Z,8.17
2022-10-15T06:54:21.501Z,17.63
2022-10-15T06:59:21.901Z,10.30
2022-10-15T07:04:19.995Z,9.53
2022-10-15T07:09:19.154Z,7.60
2022-10-15T07:14:17.499Z,11.20
2022-10-15T07:19:17.018Z,11.60
2022-10-15T07:24:15.655Z,19.17
2022-10-15T07:29:13.984Z,13.73
2022-10-15T07:34:12.091Z,9.67
2022-10-15T07:39:12.053Z,9.00
2022-10-15T07:44:10.533Z,10.73
2022-10-15T07:49:09.494Z,12.13
2022-10-15T07:54:08.050Z,15.90
2022-10-15T07:59:09.454Z,12.43
2022-10-15T08:04:07.555Z,12.33
2022-10-15T08:09:07.070Z,18.87
2022-10-15T08:14:05.316Z,13.10
2022-10-15T08:19:05.011Z,7.40
2022-10-15T08:24:03.225Z,12.63
2022-10-15T08:29:04.444Z,9.47
2022-10-15T08:34:04.320Z,10.23
2022-10-15T08:39:02.487Z,13.50
2022-10-15T08:44:01.591Z,10.70
2022-10-15T08:49:01.986Z,10.97
2022-10-15T08:54:04.368Z,15.90
2022-10-15T08:59:07.673Z,7.23
2022-10-15T09:04:22.139Z,8.83
2022-10-15T09:09:31.283Z,10.70
2022-10-15T09:14:34.154Z,12.00
2022-10-15T09:19:35.986Z,7.97
2022-10-15T09:24:37.802Z,10.20
2022-10-15T09:29:43.301Z,5.97
2022-10-15T09:34:48.280Z,12.80
2022-10-15T09:40:03.482Z,12.27
2022-10-15T09:45:06.301Z,5.90
2022-10-15T09:50:06.373Z,6.20
2022-10-15T09:55:11.766Z,6.80
2022-10-15T10:00:13.647Z,4.17
2022-10-15T10:05:29.651Z,6.40
2022-10-15T10:17:27.121Z,4.80
2022-10-15T10:22:25.596Z,5.90
2022-10-15T10:27:26.057Z,7.70
2022-10-15T10:32:30.477Z,6.80
2022-10-15T10:37:29.455Z,3.47
2022-10-15T10:42:38.170Z,6.20
2022-10-15T10:47:40.088Z,4.37
2022-10-15T10:52:41.019Z,5.53
2022-10-15T10:57:46.419Z,3.40
2022-10-15T11:02:46.029Z,3.30
2022-10-15T11:07:53.212Z,5.20
2022-10-15T11:13:06.248Z,8.30
2022-10-15T11:18:28.976Z,4.17
2022-10-15T11:23:44.435Z,4.40
2022-10-15T11:28:55.533Z,4.30
2022-10-15T11:34:09.433Z,2.57
2022-10-15T11:39:23.674Z,3.20
2022-10-15T11:44:38.461Z,2.60
2022-10-15T11:49:46.198Z,3.00
2022-10-15T11:54:48.882Z,2.50
2022-10-15T11:59:53.064Z,2.00
2022-10-15T12:04:56.699Z,2.73
2022-10-15T12:09:57.996Z,2.70
2022-10-15T12:15:14.383Z,3.17
2022-10-15T12:20:17.711Z,3.90
2022-10-15T12:25:47.048Z,5.67
2022-10-15T12:30:56.584Z,3.37
2022-10-15T12:35:58.436Z,5.10
2022-10-15T12:40:59.982Z,5.30
2022-10-15T12:46:02.450Z,8.37
2022-10-15T12:51:37.989Z,6.23
2022-10-15T12:56:40.673Z,7.57
2022-10-15T13:01:53.648Z,4.80
2022-10-15T13:06:53.491Z,7.33
2022-10-15T13:11:54.837Z,6.70
2022-10-15T13:16:53.824Z,6.17
2022-10-15T13:21:54.174Z,4.73
2022-10-15T13:26:54.979Z,8.03
2022-10-15T13:31:55.565Z,6.10
2022-10-15T13:36:55.433Z,6.73
2022-10-15T13:42:06.910Z,7.00
2022-10-15T13:47:18.253Z,5.40
2022-10-15T13:52:16.346Z,5.60
2022-10-15T13:57:17.989Z,7.33
2022-10-15T14:02:16.315Z,5.67
2022-10-15T14:07:25.056Z,6.97
2022-10-15T14:12:24.834Z,4.20
2022-10-15T14:17:25.346Z,6.03
2022-10-15T14:22:25.606Z,5.60
2022-10-15T14:27:27.330Z,4.73
2022-10-15T14:32:27.903Z,4.20
2022-10-15T14:37:31.499Z,9.90
2022-10-15T14:42:33.535Z,5.00
2022-10-15T14:47:33.176Z,4.33
2022-10-15T14:57:36.582Z,5.97
2022-10-15T15:02:34.906Z,6.57
2022-10-15T15:07:33.073Z,3.90
2022-10-15T15:12:33.144Z,5.43
2022-10-15T15:17:32.532Z,4.80
2022-10-15T15:22:32.673Z,4.37
2022-10-15T15:27:37.194Z,4.20
2022-10-15T15:32:35.775Z,3.70
2022-10-15T15:37:33.858Z,4.00
2022-10-15T15:42:34.247Z,6.13
2022-10-15T15:47:32.383Z,5.30
2022-10-15T15:52:32.628Z,5.60
2022-10-15T15:57:35.844Z,5.23
2022-10-15T16:02:34.080Z,3.57
2022-10-15T16:07:32.411Z,3.93
2022-10-15T16:12:30.772Z,3.70
2022-10-15T16:17:30.223Z,3.73
2022-10-15T16:22:28.383Z,4.67
2022-10-15T16:27:26.856Z,7.83
2022-10-15T16:32:26.037Z,4.00
2022-10-15T16:37:25.918Z,5.10
2022-10-15T16:42:24.148Z,4.40
2022-10-15T16:47:22.440Z,3.60
2022-10-15T16:59:16.593Z,3.80
2022-10-15T17:04:14.709Z,4.40
2022-10-15T17:09:13.011Z,3.30
2022-10-15T17:14:12.806Z,3.40
2022-10-15T17:19:14.568Z,3.10
2022-10-15T17:24:15.070Z,3.57
2022-10-15T17:29:16.308Z,7.87
2022-10-15T17:34:16.228Z,4.03
2022-10-15T17:39:15.997Z,3.33
2022-10-15T17:44:15.233Z,3.23
2022-10-15T17:49:18.114Z,3.90
2022-10-15T17:54:17.690Z,2.93
2022-10-15T17:59:15.872Z,2.77
2022-10-15T18:04:14.047Z,3.13
2022-10-15T18:09:12.393Z,2.73
2022-10-15T18:14:11.871Z,4.50
2022-10-15T18:19:10.296Z,5.20
2022-10-15T18:24:08.380Z,2.87
2022-10-15T18:29:07.075Z,3.20
2022-10-15T18:34:06.514Z,3.20
2022-10-15T18:39:04.892Z,2.50
2022-10-15T18:44:04.772Z,2.77
2022-10-15T18:49:03.614Z,2.30
2022-10-15T18:54:03.426Z,2.73
2022-10-15T18:59:01.504Z,3.33
2022-10-15T19:04:00.926Z,3.70
2022-10-15T19:08:59.901Z,2.40
2022-10-15T19:14:03.288Z,2.30
2022-10-15T19:19:02.321Z,2.47
2022-10-15T19:24:01.273Z,2.00
2022-10-15T19:28:59.510Z,2.00
2022-10-15T19:33:59.359Z,1.80
2022-10-15T19:39:02.259Z,1.77
2022-10-15T19:44:00.788Z,1.90
2022-10-15T19:49:00.270Z,2.07
2022-10-15T19:54:00.120Z,1.90
2022-10-15T19:59:03.802Z,1.60
2022-10-15T20:04:06.862Z,1.73
2022-10-15T20:09:05.722Z,1.67
2022-10-15T20:14:04.035Z,2.23
2022-10-15T20:19:04.582Z,1.70
2022-10-15T20:24:04.442Z,2.60
2022-10-15T20:29:03.159Z,3.00
2022-10-15T20:34:01.858Z,1.60
2022-10-15T20:39:02.173Z,1.63
2022-10-15T20:44:01.533Z,1.83
2022-10-15T20:49:07.812Z,1.73
2022-10-15T20:54:09.033Z,2.00
2022-10-15T20:59:07.110Z,2.90
2022-10-15T21:04:05.541Z,2.30
2022-10-15T21:15:47.617Z,1.70
2022-10-15T21:20:45.665Z,2.40
2022-10-15T21:25:43.760Z,4.53
2022-10-15T21:30:42.240Z,2.77
2022-10-15T21:35:41.701Z,1.70
2022-10-15T21:40:39.744Z,2.20
2022-10-15T21:45:37.782Z,2.93
2022-10-15T21:50:35.854Z,3.10
2022-10-15T21:55:35.259Z,3.30
2022-10-15T22:00:33.362Z,2.43
2022-10-15T22:05:33.533Z,3.53
2022-10-15T22:10:31.655Z,2.80
2022-10-15T22:15:31.188Z,4.63
2022-10-15T22:20:29.363Z,3.30
2022-10-15T22:25:27.524Z,3.37
2022-10-15T22:30:25.872Z,2.37
2022-10-15T22:35:25.336Z,3.00
2022-10-15T22:40:24.211Z,3.23
2022-10-15T22:45:22.421Z,3.50
2022-10-15T22:50:20.549Z,9.03
2022-10-15T22:55:20.118Z,3.30
2022-10-15T23:00:18.294Z,3.20
2022-10-15T23:05:16.572Z,4.50
2022-10-15T23:10:14.662Z,3.27
2022-10-15T23:15:14.145Z,2.67
2022-10-15T23:20:12.842Z,2.47
2022-10-15T23:25:11.106Z,6.10
2022-10-15T23:30:21.098Z,5.43
2022-10-15T23:35:24.044Z,2.23
2022-10-15T23:40:22.153Z,4.00
2022-10-15T23:45:20.234Z,2.73
2022-10-15T23:50:18.486Z,2.17
2022-10-15T23:55:18.018Z,2.60
